createdAt,value
2023-03-13T00:01:13.454Z,4.73
2023-03-13T00:03:41.668Z,4.63
2023-03-13T00:06:09.988Z,4.53
2023-03-13T00:08:38.127Z,4.97
2023-03-13T00:11:07.781Z,4.60
2023-03-13T00:13:36.608Z,5.10
2023-03-13T00:16:08.447Z,5.30
2023-03-13T00:18:37.053Z,5.50
2023-03-13T00:21:07.432Z,5.50
2023-03-13T00:23:38.432Z,4.83
2023-03-13T00:26:08.284Z,4.67
2023-03-13T00:28:37.466Z,4.60
2023-03-13T00:31:09.221Z,5.17
2023-03-13T00:33:38.850Z,5.03
2023-03-13T00:36:09.091Z,4.73
2023-03-13T00:38:37.960Z,4.90
2023-03-13T00:41:07.982Z,5.40
2023-03-13T00:43:36.880Z,4.83
2023-03-13T00:46:05.341Z,5.97
2023-03-13T00:48:35.277Z,4.80
2023-03-13T00:51:04.137Z,4.83
2023-03-13T00:53:32.648Z,5.90
2023-03-13T00:56:02.380Z,5.70
2023-03-13T00:58:32.784Z,4.87
2023-03-13T01:01:08.922Z,5.07
2023-03-13T01:03:39.274Z,5.07
2023-03-13T01:06:08.973Z,5.30
2023-03-13T01:08:37.469Z,5.80
2023-03-13T01:11:08.612Z,5.47
2023-03-13T01:13:37.419Z,6.10
2023-03-13T01:16:07.151Z,5.80
2023-03-13T01:18:36.070Z,6.37
2023-03-13T01:21:06.771Z,5.57
2023-03-13T01:23:35.267Z,5.80
2023-03-13T01:26:06.371Z,5.00
2023-03-13T01:28:35.338Z,5.77
2023-03-13T01:31:12.470Z,5.50
2023-03-13T01:33:40.643Z,5.17
2023-03-13T01:36:10.729Z,5.50
2023-03-13T01:38:39.670Z,5.57
2023-03-13T01:41:09.054Z,5.23
2023-03-13T01:43:38.246Z,5.53
2023-03-13T01:46:16.559Z,5.63
2023-03-13T01:48:56.668Z,5.90
2023-03-13T01:51:30.052Z,6.13
2023-03-13T01:54:06.648Z,5.57
2023-03-13T01:56:41.378Z,5.73
2023-03-13T01:59:12.389Z,6.07
2023-03-13T02:01:42.217Z,6.30
2023-03-13T02:04:10.441Z,5.63
2023-03-13T02:06:44.197Z,6.07
2023-03-13T02:09:16.210Z,6.23
2023-03-13T02:11:49.958Z,6.03
2023-03-13T02:14:22.299Z,6.33
2023-03-13T02:16:52.180Z,6.23
2023-03-13T02:19:31.592Z,6.93
2023-03-13T02:22:13.123Z,6.50
2023-03-13T02:24:51.809Z,6.07
2023-03-13T02:27:21.381Z,6.03
2023-03-13T02:29:51.048Z,7.37
2023-03-13T02:32:19.308Z,7.30
2023-03-13T02:34:51.820Z,6.57
2023-03-13T02:37:22.013Z,6.50
2023-03-13T02:39:52.628Z,7.10
2023-03-13T02:42:24.480Z,5.93
2023-03-13T02:44:53.068Z,6.93
2023-03-13T02:47:22.067Z,6.67
2023-03-13T02:49:51.352Z,5.77
2023-03-13T02:52:25.801Z,6.30
2023-03-13T02:54:58.449Z,6.63
2023-03-13T02:57:27.925Z,5.67
2023-03-13T02:59:56.087Z,5.77
2023-03-13T03:02:24.500Z,7.03
2023-03-13T03:04:54.359Z,6.37
2023-03-13T03:07:22.457Z,6.17
2023-03-13T03:09:50.711Z,5.30
2023-03-13T03:12:20.947Z,5.63
2023-03-13T03:14:50.648Z,5.57
2023-03-13T03:17:19.457Z,5.57
2023-03-13T03:19:47.496Z,5.30
2023-03-13T03:22:15.590Z,5.53
2023-03-13T03:24:43.665Z,5.67
2023-03-13T03:27:11.817Z,5.93
2023-03-13T03:29:46.261Z,6.50
2023-03-13T03:32:15.829Z,5.40
2023-03-13T03:34:44.345Z,5.27
2023-03-13T03:37:12.481Z,5.37
2023-03-13T03:39:40.935Z,5.77
2023-03-13T03:42:09.746Z,5.67
2023-03-13T03:44:38.502Z,5.50
2023-03-13T03:47:07.737Z,5.90
2023-03-13T03:49:41.735Z,6.03
2023-03-13T03:52:12.422Z,5.77
2023-03-13T03:54:43.227Z,7.20
2023-03-13T03:57:11.511Z,6.90
2023-03-13T03:59:41.237Z,5.70
2023-03-13T04:02:10.571Z,6.47
2023-03-13T04:04:38.791Z,6.33
2023-03-13T04:07:20.665Z,5.73
2023-03-13T04:09:49.821Z,6.20
2023-03-13T04:12:26.757Z,6.63
2023-03-13T04:14:56.620Z,6.23
2023-03-13T04:17:24.865Z,7.30
2023-03-13T04:19:53.123Z,7.53
2023-03-13T04:22:22.771Z,7.27
2023-03-13T04:24:55.795Z,7.67
2023-03-13T04:27:24.808Z,7.90
2023-03-13T04:29:53.661Z,7.63
2023-03-13T04:32:40.415Z,7.87
2023-03-13T04:35:32.308Z,7.83
2023-03-13T04:38:18.728Z,8.73
2023-03-13T04:40:48.020Z,9.83
2023-03-13T04:43:34.572Z,8.87
2023-03-13T04:46:15.639Z,9.37
2023-03-13T04:49:13.734Z,9.30
2023-03-13T04:52:00.318Z,8.83
2023-03-13T04:54:53.079Z,9.27
2023-03-13T04:57:43.089Z,9.13
2023-03-13T05:00:29.453Z,8.57
2023-03-13T05:03:26.410Z,8.03
2023-03-13T05:06:00.326Z,8.23
2023-03-13T05:08:54.691Z,8.63
2023-03-13T05:11:58.200Z,8.87
2023-03-13T05:14:46.671Z,9.17
2023-03-13T05:17:33.091Z,7.70
2023-03-13T05:20:19.768Z,9.10
2023-03-13T05:23:17.149Z,8.07
2023-03-13T05:26:05.613Z,7.37
2023-03-13T05:29:01.093Z,6.90
2023-03-13T05:31:35.814Z,7.57
2023-03-13T05:34:19.287Z,7.17
2023-03-13T05:37:09.436Z,7.07
2023-03-13T05:39:52.807Z,7.13
2023-03-13T05:42:47.443Z,8.80
2023-03-13T05:45:29.303Z,7.67
2023-03-13T05:48:03.580Z,7.67
2023-03-13T05:50:56.233Z,7.07
2023-03-13T05:53:44.613Z,6.93
2023-03-13T05:56:33.050Z,6.70
2023-03-13T05:59:27.782Z,6.47
2023-03-13T06:02:27.175Z,6.73
2023-03-13T06:04:56.962Z,6.63
2023-03-13T06:07:25.414Z,6.53
2023-03-13T06:09:54.370Z,6.27
2023-03-13T06:12:22.460Z,5.97
2023-03-13T06:14:50.777Z,6.00
2023-03-13T06:17:43.565Z,6.40
2023-03-13T06:20:13.017Z,6.17
2023-03-13T06:22:42.001Z,6.03
2023-03-13T06:25:10.836Z,6.80
2023-03-13T06:27:38.897Z,7.00
2023-03-13T06:30:07.507Z,5.83
2023-03-13T06:32:35.684Z,5.87
2023-03-13T06:35:06.026Z,6.20
2023-03-13T06:37:34.846Z,5.80
2023-03-13T06:40:04.545Z,5.70
2023-03-13T06:42:32.694Z,6.33
2023-03-13T06:45:00.764Z,7.50
2023-03-13T06:47:28.934Z,6.73
2023-03-13T06:49:57.043Z,6.67
2023-03-13T06:52:37.578Z,7.03
2023-03-13T06:55:10.618Z,6.63
2023-03-13T06:57:38.699Z,6.30
2023-03-13T07:00:08.807Z,6.73
2023-03-13T07:02:36.884Z,5.90
2023-03-13T07:05:06.046Z,6.20
2023-03-13T07:07:35.620Z,6.37
2023-03-13T07:10:05.008Z,6.57
2023-03-13T07:12:33.119Z,6.83
2023-03-13T07:15:01.174Z,5.63
2023-03-13T07:17:29.334Z,6.47
2023-03-13T07:19:57.656Z,6.97
2023-03-13T07:22:25.857Z,6.77
2023-03-13T07:24:55.422Z,6.73
2023-03-13T07:27:23.599Z,7.10
2023-03-13T07:29:51.789Z,6.77
2023-03-13T07:32:19.982Z,6.73
2023-03-13T07:34:48.144Z,6.17
2023-03-13T07:37:17.379Z,6.23
2023-03-13T07:39:45.479Z,5.70
2023-03-13T07:42:14.991Z,6.40
2023-03-13T07:44:43.056Z,5.87
2023-03-13T07:47:11.569Z,5.73
2023-03-13T07:49:42.843Z,5.43
2023-03-13T07:52:11.626Z,5.50
2023-03-13T07:54:39.768Z,5.60
2023-03-13T07:57:08.081Z,6.07
2023-03-13T07:59:37.591Z,5.77
2023-03-13T08:02:06.259Z,5.57
2023-03-13T08:04:34.372Z,5.63
2023-03-13T08:07:02.498Z,5.47
2023-03-13T08:09:33.758Z,6.17
2023-03-13T08:12:01.877Z,6.83
2023-03-13T08:14:29.916Z,6.63
2023-03-13T08:16:59.515Z,8.17
2023-03-13T08:19:27.791Z,7.27
2023-03-13T08:21:55.984Z,7.20
2023-03-13T08:24:24.303Z,6.50
2023-03-13T08:26:52.433Z,6.40
2023-03-13T08:29:20.506Z,7.07
2023-03-13T08:31:50.024Z,6.57
2023-03-13T08:34:20.274Z,6.37
2023-03-13T08:36:48.910Z,6.47
2023-03-13T08:39:18.525Z,7.47
2023-03-13T08:41:47.122Z,6.93
2023-03-13T08:44:17.377Z,7.13
2023-03-13T08:46:45.798Z,6.90
2023-03-13T08:49:14.496Z,6.10
2023-03-13T08:51:44.086Z,6.53
2023-03-13T08:54:12.321Z,6.47
2023-03-13T08:56:41.072Z,6.50
2023-03-13T08:59:09.178Z,7.23
2023-03-13T09:01:38.246Z,6.63
2023-03-13T09:04:07.262Z,6.33
2023-03-13T09:06:36.548Z,6.60
2023-03-13T09:09:07.118Z,6.40
2023-03-13T09:11:37.065Z,5.87
2023-03-13T09:14:05.269Z,6.10
2023-03-13T09:16:35.062Z,6.03
2023-03-13T09:19:03.543Z,6.93
2023-03-13T09:21:33.951Z,7.07
2023-03-13T09:24:02.690Z,6.90
2023-03-13T09:26:32.668Z,5.93
2023-03-13T09:29:00.904Z,6.60
2023-03-13T09:31:31.126Z,6.15
2023-03-13T09:33:59.365Z,6.97
2023-03-13T09:36:28.813Z,6.22
2023-03-13T09:38:59.340Z,5.05
2023-03-13T09:41:35.253Z,5.80
2023-03-13T09:44:08.140Z,6.15
2023-03-13T09:46:41.231Z,5.80
2023-03-13T09:49:18.310Z,6.95
2023-03-13T09:51:52.263Z,6.07
2023-03-13T09:54:27.111Z,6.00
2023-03-13T09:57:00.037Z,5.47
2023-03-13T09:59:33.777Z,5.05
2023-03-13T10:02:05.577Z,5.15
2023-03-13T10:04:42.076Z,5.60
2023-03-13T10:07:12.561Z,4.70
2023-03-13T10:09:41.886Z,4.57
2023-03-13T10:12:18.082Z,4.63
2023-03-13T10:14:55.132Z,5.00
2023-03-13T10:17:32.387Z,4.65
2023-03-13T10:20:09.232Z,4.45
2023-03-13T10:22:38.456Z,4.40
2023-03-13T10:25:10.603Z,4.28
2023-03-13T10:27:53.688Z,4.78
2023-03-13T10:30:25.978Z,3.67
2023-03-13T10:33:01.010Z,3.83
2023-03-13T10:35:34.809Z,3.95
2023-03-13T10:38:06.916Z,3.40
2023-03-13T10:40:35.387Z,3.42
2023-03-13T10:43:07.425Z,3.65
2023-03-13T10:45:37.981Z,3.42
2023-03-13T10:48:14.036Z,3.85
2023-03-13T10:50:45.024Z,4.25
2023-03-13T10:53:24.710Z,4.10
2023-03-13T10:55:55.412Z,4.28
2023-03-13T10:58:34.569Z,4.40
2023-03-13T11:01:17.203Z,5.72
2023-03-13T11:03:45.861Z,3.70
2023-03-13T11:06:42.466Z,4.22
2023-03-13T11:09:14.901Z,4.13
2023-03-13T11:11:51.058Z,4.53
2023-03-13T11:14:22.467Z,4.60
2023-03-13T11:16:52.516Z,4.03
2023-03-13T11:19:40.661Z,3.97
2023-03-13T11:22:23.839Z,4.60
2023-03-13T11:25:03.650Z,4.85
2023-03-13T11:27:40.080Z,4.47
2023-03-13T11:30:22.759Z,4.28
2023-03-13T11:32:56.584Z,3.90
2023-03-13T11:35:38.377Z,3.70
2023-03-13T11:38:10.333Z,3.72
2023-03-13T11:40:46.527Z,3.97
2023-03-13T11:43:26.865Z,3.47
2023-03-13T11:46:12.631Z,3.20
2023-03-13T11:48:54.904Z,3.47
2023-03-13T11:51:30.537Z,3.50
2023-03-13T11:54:26.003Z,3.20
2023-03-13T11:56:57.949Z,3.38
2023-03-13T11:59:37.689Z,3.15
2023-03-13T12:02:20.235Z,3.28
2023-03-13T12:04:53.791Z,3.47
2023-03-13T12:07:29.325Z,3.42
2023-03-13T12:10:01.382Z,3.35
2023-03-13T12:12:41.871Z,3.60
2023-03-13T12:15:21.788Z,3.67
2023-03-13T12:17:56.360Z,3.47
2023-03-13T12:20:28.967Z,3.97
2023-03-13T12:23:08.519Z,3.67
2023-03-13T12:25:44.612Z,4.03
2023-03-13T12:28:34.398Z,3.55
2023-03-13T12:31:11.771Z,3.90
2023-03-13T12:33:45.609Z,3.80
2023-03-13T12:36:20.013Z,3.60
2023-03-13T12:38:56.793Z,3.50
2023-03-13T12:41:29.409Z,3.30
2023-03-13T12:44:08.353Z,3.85
2023-03-13T12:46:42.380Z,3.50
2023-03-13T12:49:48.807Z,3.58
2023-03-13T12:52:43.623Z,3.28
2023-03-13T12:55:30.923Z,3.35
2023-03-13T12:58:20.582Z,3.25
2023-03-13T13:00:51.421Z,3.03
2023-03-13T13:03:31.260Z,3.42
2023-03-13T13:06:07.210Z,2.90
2023-03-13T13:08:38.939Z,3.05
2023-03-13T13:11:53.598Z,3.20
2023-03-13T13:15:06.816Z,3.28
2023-03-13T13:17:48.829Z,2.70
2023-03-13T13:20:46.203Z,3.53
2023-03-13T13:23:34.997Z,3.28
2023-03-13T13:26:49.613Z,2.80
2023-03-13T13:29:57.391Z,2.70
2023-03-13T13:32:46.260Z,2.80
2023-03-13T13:35:27.423Z,2.40
2023-03-13T13:38:39.848Z,2.33
2023-03-13T13:41:38.817Z,2.33
2023-03-13T13:44:23.356Z,2.80
2023-03-13T13:46:52.101Z,2.75
2023-03-13T13:49:21.219Z,2.97
2023-03-13T13:52:41.217Z,2.97
2023-03-13T13:55:34.680Z,2.83
2023-03-13T13:58:05.699Z,2.13
2023-03-13T14:00:41.911Z,2.25
2023-03-13T14:03:20.455Z,2.70
2023-03-13T14:05:50.158Z,2.50
2023-03-13T14:08:24.126Z,2.80
2023-03-13T14:11:05.343Z,2.60
2023-03-13T14:13:33.444Z,2.53
2023-03-13T14:16:24.207Z,2.50
2023-03-13T14:18:53.268Z,2.90
2023-03-13T14:21:24.239Z,2.88
2023-03-13T14:23:53.002Z,2.22
2023-03-13T14:26:24.676Z,2.28
2023-03-13T14:28:54.747Z,2.85
2023-03-13T14:31:25.197Z,2.80
2023-03-13T14:33:54.327Z,2.53
2023-03-13T14:36:22.985Z,2.20
2023-03-13T14:38:56.731Z,2.53
2023-03-13T14:41:31.300Z,2.47
2023-03-13T14:44:08.180Z,2.43
2023-03-13T14:46:38.287Z,2.40
2023-03-13T14:49:16.206Z,2.30
2023-03-13T14:51:44.477Z,2.55
2023-03-13T14:54:31.674Z,2.30
2023-03-13T14:57:16.210Z,2.30
2023-03-13T14:59:45.102Z,2.83
2023-03-13T15:02:21.817Z,2.73
2023-03-13T15:04:59.586Z,2.43
2023-03-13T15:07:29.593Z,2.47
2023-03-13T15:09:57.862Z,2.40
2023-03-13T15:12:28.131Z,2.53
2023-03-13T15:14:57.370Z,2.33
2023-03-13T15:17:27.828Z,2.73
2023-03-13T15:19:57.640Z,2.10
2023-03-13T15:22:29.432Z,3.07
2023-03-13T15:25:06.095Z,2.30
2023-03-13T15:27:36.877Z,2.57
2023-03-13T15:30:06.625Z,2.72
2023-03-13T15:32:37.363Z,2.80
2023-03-13T15:35:22.438Z,2.73
2023-03-13T15:37:50.632Z,2.50
2023-03-13T15:40:19.905Z,2.73
2023-03-13T15:42:49.571Z,2.70
2023-03-13T15:45:17.915Z,2.77
2023-03-13T15:47:48.122Z,2.73
2023-03-13T15:50:19.522Z,3.00
2023-03-13T15:52:48.252Z,2.70
2023-03-13T15:55:16.633Z,3.10
2023-03-13T15:57:47.608Z,3.20
2023-03-13T16:00:21.373Z,3.53
2023-03-13T16:02:49.911Z,2.93
2023-03-13T16:05:18.369Z,2.50
2023-03-13T16:07:46.507Z,2.70
2023-03-13T16:10:18.748Z,2.90
2023-03-13T16:12:46.929Z,2.50
2023-03-13T16:15:15.046Z,2.63
2023-03-13T16:17:44.857Z,2.73
2023-03-13T16:20:17.105Z,2.73
2023-03-13T16:22:45.522Z,3.10
2023-03-13T16:25:13.973Z,2.60
2023-03-13T16:27:42.703Z,2.40
2023-03-13T16:30:19.001Z,2.73
2023-03-13T16:32:48.557Z,3.13
2023-03-13T16:35:17.698Z,2.77
2023-03-13T16:37:46.337Z,3.37
2023-03-13T16:40:17.678Z,2.83
2023-03-13T16:42:46.217Z,2.50
2023-03-13T16:45:15.779Z,2.97
2023-03-13T16:47:45.136Z,2.73
2023-03-13T16:50:23.276Z,2.27
2023-03-13T16:52:52.059Z,3.03
2023-03-13T16:55:20.934Z,2.53
2023-03-13T16:57:49.092Z,2.70
2023-03-13T17:00:21.535Z,2.97
2023-03-13T17:02:50.337Z,3.03
2023-03-13T17:05:21.038Z,4.13
2023-03-13T17:07:51.350Z,3.77
2023-03-13T17:10:22.762Z,4.03
2023-03-13T17:12:51.960Z,5.20
2023-03-13T17:15:21.351Z,5.20
2023-03-13T17:17:52.542Z,5.00
2023-03-13T17:20:26.232Z,5.10
2023-03-13T17:22:56.596Z,4.07
2023-03-13T17:25:25.585Z,4.00
2023-03-13T17:27:54.862Z,4.37
2023-03-13T17:30:26.657Z,4.90
2023-03-13T17:32:55.561Z,4.73
2023-03-13T17:35:26.188Z,3.63
2023-03-13T17:37:54.765Z,3.43
2023-03-13T17:40:25.780Z,3.37
2023-03-13T17:42:54.459Z,4.10
2023-03-13T17:45:23.453Z,3.70
2023-03-13T17:47:53.968Z,4.37
2023-03-13T17:50:25.682Z,3.77
2023-03-13T17:52:56.711Z,4.10
2023-03-13T17:55:25.726Z,3.60
2023-03-13T17:57:55.780Z,4.13
2023-03-13T18:00:29.000Z,3.97
2023-03-13T18:02:59.415Z,3.43
2023-03-13T18:05:28.861Z,3.57
2023-03-13T18:07:59.189Z,3.90
2023-03-13T18:10:30.446Z,7.40
2023-03-13T18:13:00.416Z,7.27
2023-03-13T18:15:30.287Z,6.13
2023-03-13T18:18:00.153Z,4.90
2023-03-13T18:20:33.490Z,3.63
2023-03-13T18:23:04.120Z,3.37
2023-03-13T18:25:33.633Z,3.90
2023-03-13T18:28:05.445Z,4.57
2023-03-13T18:30:35.343Z,4.40
2023-03-13T18:33:04.390Z,4.40
2023-03-13T18:35:34.298Z,4.77
2023-03-13T18:38:05.647Z,4.50
2023-03-13T18:40:36.599Z,7.70
2023-03-13T18:43:06.183Z,6.07
2023-03-13T18:45:36.964Z,5.67
2023-03-13T18:48:07.006Z,5.70
2023-03-13T18:50:36.616Z,5.00
2023-03-13T18:53:07.873Z,5.43
2023-03-13T18:55:45.346Z,5.03
2023-03-13T18:58:15.904Z,4.60
2023-03-13T19:00:46.007Z,5.10
2023-03-13T19:03:21.154Z,5.03
2023-03-13T19:05:51.385Z,5.07
2023-03-13T19:08:23.141Z,5.17
2023-03-13T19:10:53.682Z,4.63
2023-03-13T19:13:22.968Z,5.90
2023-03-13T19:15:59.970Z,6.57
2023-03-13T19:18:29.786Z,6.20
2023-03-13T19:21:00.048Z,5.60
2023-03-13T19:23:33.831Z,5.97
2023-03-13T19:26:04.016Z,6.63
2023-03-13T19:28:33.575Z,5.93
2023-03-13T19:31:04.379Z,5.37
2023-03-13T19:33:35.049Z,5.13
2023-03-13T19:36:10.082Z,5.53
2023-03-13T19:38:41.499Z,6.00
2023-03-13T19:41:15.450Z,5.23
2023-03-13T19:43:48.424Z,6.23
2023-03-13T19:46:25.893Z,6.87
2023-03-13T19:48:58.424Z,5.87
2023-03-13T19:51:30.135Z,6.10
2023-03-13T19:54:02.565Z,6.07
2023-03-13T19:56:34.640Z,6.00
2023-03-13T19:59:06.519Z,6.50
2023-03-13T20:01:35.964Z,5.63
2023-03-13T20:04:05.704Z,6.43
2023-03-13T20:06:41.400Z,5.63
2023-03-13T20:09:16.919Z,4.77
2023-03-13T20:11:46.844Z,6.23
2023-03-13T20:14:16.546Z,6.17
2023-03-13T20:16:49.409Z,9.00
2023-03-13T20:19:19.882Z,8.20
2023-03-13T20:21:50.226Z,7.33
2023-03-13T20:24:21.933Z,7.40
2023-03-13T20:26:52.166Z,6.53
2023-03-13T20:29:22.235Z,6.13
2023-03-13T20:31:53.115Z,6.77
2023-03-13T20:34:22.575Z,7.83
2023-03-13T20:36:54.009Z,8.97
2023-03-13T20:39:26.375Z,9.07
2023-03-13T20:41:56.800Z,10.03
2023-03-13T20:44:29.011Z,12.37
2023-03-13T20:46:59.379Z,11.00
2023-03-13T20:49:29.246Z,11.97
2023-03-13T20:52:00.304Z,10.20
2023-03-13T20:54:31.360Z,10.57
2023-03-13T20:57:00.351Z,9.77
2023-03-13T20:59:35.494Z,10.07
2023-03-13T21:02:05.114Z,10.63
2023-03-13T21:04:34.648Z,9.57
2023-03-13T21:07:05.144Z,9.87
2023-03-13T21:09:36.917Z,13.67
2023-03-13T21:12:07.326Z,11.40
2023-03-13T21:14:36.962Z,10.63
2023-03-13T21:17:05.928Z,10.10
2023-03-13T21:19:35.016Z,9.33
2023-03-13T21:22:04.988Z,9.57
2023-03-13T21:24:34.867Z,8.83
2023-03-13T21:27:03.474Z,9.17
2023-03-13T21:29:31.710Z,9.17
2023-03-13T21:32:00.067Z,9.37
2023-03-13T21:34:28.403Z,8.30
2023-03-13T21:36:57.097Z,7.83
2023-03-13T21:39:25.346Z,8.93
2023-03-13T21:41:54.856Z,7.33
2023-03-13T21:44:23.177Z,8.17
2023-03-13T21:46:51.873Z,7.93
2023-03-13T21:49:20.097Z,7.83
2023-03-13T21:51:48.224Z,7.97
2023-03-13T21:54:16.363Z,7.43
2023-03-13T21:56:44.524Z,8.30
2023-03-13T21:59:14.024Z,8.57
2023-03-13T22:01:42.420Z,8.47
2023-03-13T22:04:10.641Z,7.90
2023-03-13T22:06:38.939Z,7.90
2023-03-13T22:09:08.394Z,8.20
2023-03-13T22:11:36.583Z,8.00
2023-03-13T22:14:04.715Z,7.23
2023-03-13T22:16:34.235Z,8.23
2023-03-13T22:19:02.312Z,7.63
2023-03-13T22:21:30.388Z,7.97
2023-03-13T22:23:58.560Z,8.23
2023-03-13T22:26:26.866Z,8.17
2023-03-13T22:28:54.998Z,8.13
2023-03-13T22:31:23.114Z,6.53
2023-03-13T22:33:52.501Z,6.97
2023-03-13T22:36:20.595Z,6.50
2023-03-13T22:38:48.663Z,7.07
2023-03-13T22:41:17.768Z,6.90
2023-03-13T22:43:45.821Z,6.17
2023-03-13T22:46:14.064Z,6.70
2023-03-13T22:48:42.251Z,6.63
2023-03-13T22:51:13.256Z,6.63
2023-03-13T22:53:43.039Z,6.60
2023-03-13T22:56:12.954Z,7.37
2023-03-13T22:58:42.048Z,6.27
2023-03-13T23:01:12.746Z,5.53
2023-03-13T23:03:41.018Z,6.33
2023-03-13T23:06:15.962Z,6.27
2023-03-13T23:08:44.226Z,5.80
2023-03-13T23:11:12.437Z,6.13
2023-03-13T23:13:40.723Z,6.23
2023-03-13T23:16:10.792Z,6.00
2023-03-13T23:18:40.065Z,5.63
2023-03-13T23:21:10.073Z,6.27
2023-03-13T23:23:40.198Z,5.93
2023-03-13T23:26:10.175Z,5.57
2023-03-13T23:28:39.646Z,5.63
2023-03-13T23:31:12.902Z,5.73
2023-03-13T23:33:41.536Z,6.10
2023-03-13T23:36:12.326Z,5.43
2023-03-13T23:38:42.020Z,5.93
2023-03-13T23:41:11.586Z,6.00
2023-03-13T23:43:40.303Z,6.33
2023-03-13T23:46:16.478Z,6.37
2023-03-13T23:48:45.137Z,6.73
2023-03-13T23:51:14.048Z,5.40
2023-03-13T23:53:44.587Z,5.63
2023-03-13T23:56:13.749Z,6.13
2023-03-13T23:58:42.228Z,5.30
